This is the latest recevied weather packets stored in our database for station/object WY7EM. If no packets are shown the sender has not sent any weather packets the latest 1 day(s).
| Time | Temp. | Humidity | Pressure | Rain* | Wind** | Luminosity | Snow |
|---|---|---|---|---|---|---|---|
| 1778076201 | 14.44° C | 34% | 1014.6 hPa | 0 mm | - | 39 W/m² | - |
| 1778074988 | 14.44° C | 34% | 1014.3 hPa | 0 mm | - | 35 W/m² | - |
| 1778073169 | 13.89° C | 34% | 1013.7 hPa | 0 mm | - | 26 W/m² | - |
| 1778072563 | 13.89° C | 35% | 1013.5 hPa | 0 mm | - | 22 W/m² | - |
| 1778072261 | 13.33° C | 35% | 1013.3 hPa | 0 mm | - | 19 W/m² | - |
| 1778071657 | 13.33° C | 35% | 1013.2 hPa | 0 mm | - | 12 W/m² | - |
| 1778071354 | 13.89° C | 35% | 1013 hPa | 0 mm | - | 10 W/m² | - |
| 1778070144 | 13.89° C | 34% | 1012.8 hPa | 0 mm | - | 2 W/m² | - |
| 1778069842 | 13.89° C | 34% | 1012.6 hPa | 0 mm | - | 1 W/m² | - |
| 1778069236 | 14.44° C | 33% | 1012.3 hPa | 0 mm | - | 0 W/m² | - |
| 1778067724 | 14.44° C | 33% | 1012.1 hPa | 0 mm | - | 0 W/m² | - |
| 1778066815 | 14.44° C | 33% | 1011.9 hPa | 0 mm | - | 0 W/m² | - |
| 1778065303 | 14.44° C | 32% | 1011.8 hPa | 0 mm | - | 0 W/m² | - |
| 1778064999 | 14.44° C | 31% | 1011.8 hPa | 0 mm | - | 0 W/m² | - |
| 1778064696 | 14.44° C | 31% | 1011.8 hPa | 0 mm | - | 0 W/m² | - |
| 1778063789 | 14.44° C | 32% | 1011.8 hPa | 0 mm | - | 0 W/m² | - |
| 1778063184 | 15° C | 31% | 1011.5 hPa | 0 mm | - | 0 W/m² | - |
| 1778062881 | 14.44° C | 32% | 1011.4 hPa | 0 mm | - | 0 W/m² | - |
| 1778062577 | 15° C | 31% | 1011.5 hPa | 0 mm | - | 0 W/m² | - |
| 1778062274 | 15° C | 31% | 1011.4 hPa | 0 mm | - | 0 W/m² | - |
| 1778061973 | 15° C | 31% | 1011.3 hPa | 0 mm | - | 0 W/m² | - |
| 1778060763 | 15° C | 31% | 1011.2 hPa | 0 mm | - | 0 W/m² | - |
| 1778059250 | 15° C | 30% | 1011 hPa | 0 mm | - | 0 W/m² | - |
| 1778058343 | 15° C | 30% | 1011.1 hPa | 0 mm | - | 0 W/m² | - |
| 1778058039 | 15° C | 31% | 1011.2 hPa | 0 mm | - | 0 W/m² | - |
* Rain latest hour (hover to see other rain measurements)
** Current wind speed in m/s (hover to see current wind gust speed)